Time;durP1;ratioP1;P1;durP2;ratioP2;P2;SDS_P1;SDS_P2;PMS_P1;PMS_P2;Temp;Humidity;BMP_temperature;BMP_pressure;BME280_temperature;BME280_humidity;BME280_pressure;Samples;Min_cycle;Max_cycle;Signal;HPM_P1;HPM_P2
2022/01/07 00:02:17;;;;;;;41.53;22.75;;;;;;;;;;4995780;28;20029;-77
2022/01/07 00:04:43;;;;;;;37.38;22.25;;;;;;;;;;4995606;28;20129;-77
2022/01/07 00:07:09;;;;;;;41.58;24.65;;;;;;;;;;4996913;28;20491;-76
2022/01/07 00:09:36;;;;;;;36.72;21.85;;;;;;;;;;4995699;28;20152;-76
2022/01/07 00:12:02;;;;;;;35.50;20.85;;;;;;;;;;4996776;28;20022;-76
2022/01/07 00:14:27;;;;;;;38.58;22.58;;;;;;;;;;4996748;28;20592;-77
2022/01/07 00:16:53;;;;;;;34.58;20.92;;;;;;;;;;4997493;28;20125;-77
2022/01/07 00:19:19;;;;;;;36.55;21.58;;;;;;;;;;4994984;28;20030;-76
2022/01/07 00:21:45;;;;;;;34.30;22.08;;;;;;;;;;4996173;28;21031;-75
2022/01/07 00:24:10;;;;;;;29.02;17.10;;;;;;;;;;4992251;28;20037;-76
2022/01/07 00:26:35;;;;;;;32.55;17.92;;;;;;;;;;4976990;28;20015;-76
2022/01/07 00:29:00;;;;;;;40.90;21.98;;;;;;;;;;4975403;28;20386;-76
2022/01/07 00:31:26;;;;;;;40.72;23.70;;;;;;;;;;4976791;28;20108;-76
2022/01/07 00:33:51;;;;;;;54.83;28.95;;;;;;;;;;4976690;28;20073;-75
2022/01/07 00:36:16;;;;;;;40.30;23.20;;;;;;;;;;4977153;28;20026;-76
2022/01/07 00:38:42;;;;;;;39.38;24.88;;;;;;;;;;4975421;28;20033;-76
2022/01/07 00:41:07;;;;;;;40.05;20.55;;;;;;;;;;4976479;28;20596;-76
2022/01/07 00:43:33;;;;;;;38.72;22.02;;;;;;;;;;4975061;28;20057;-77
2022/01/07 00:45:58;;;;;;;32.15;19.27;;;;;;;;;;4976053;28;20021;-77
2022/01/07 00:48:24;;;;;;;35.03;19.95;;;;;;;;;;4976696;28;20040;-77
2022/01/07 00:50:49;;;;;;;38.10;19.70;;;;;;;;;;4981431;28;20600;-77
2022/01/07 00:53:14;;;;;;;36.28;21.90;;;;;;;;;;4996270;28;20029;-76
2022/01/07 00:55:41;;;;;;;34.60;21.83;;;;;;;;;;4994323;28;20049;-75
2022/01/07 00:58:07;;;;;;;46.20;24.17;;;;;;;;;;4995060;28;20038;-77
2022/01/07 01:00:32;;;;;;;32.30;19.80;;;;;;;;;;4994721;28;20025;-76
2022/01/07 01:02:59;;;;;;;36.90;19.73;;;;;;;;;;4994774;28;20021;-77
2022/01/07 01:05:24;;;;;;;36.50;21.45;;;;;;;;;;4996050;28;20029;-76
2022/01/07 01:07:50;;;;;;;35.28;20.05;;;;;;;;;;4994815;28;20067;-76
2022/01/07 01:10:16;;;;;;;38.08;22.85;;;;;;;;;;4996814;28;21007;-76
2022/01/07 01:12:43;;;;;;;34.17;20.48;;;;;;;;;;4996010;28;20500;-76
2022/01/07 01:15:09;;;;;;;28.80;18.50;;;;;;;;;;4994311;28;20057;-76
2022/01/07 01:17:35;;;;;;;27.17;17.90;;;;;;;;;;4995440;28;20025;-76
2022/01/07 01:20:01;;;;;;;29.95;18.45;;;;;;;;;;4995632;28;20022;-75
2022/01/07 01:22:27;;;;;;;30.30;18.67;;;;;;;;;;4994728;28;20022;-76
2022/01/07 01:24:52;;;;;;;29.65;18.55;;;;;;;;;;4995781;28;20032;-76
2022/01/07 01:27:17;;;;;;;30.77;17.88;;;;;;;;;;4994157;28;20105;-76
2022/01/07 01:29:43;;;;;;;26.75;18.02;;;;;;;;;;4994147;28;20025;-76
2022/01/07 01:32:08;;;;;;;26.98;18.05;;;;;;;;;;4995558;28;20026;-75
2022/01/07 01:34:33;;;;;;;26.10;17.58;;;;;;;;;;4994188;28;20021;-76
2022/01/07 01:36:59;;;;;;;27.85;17.25;;;;;;;;;;4995237;28;20441;-75
2022/01/07 01:39:24;;;;;;;26.17;16.30;;;;;;;;;;4996101;28;20049;-77
2022/01/07 01:41:50;;;;;;;25.20;14.63;;;;;;;;;;4993654;28;20061;-76
2022/01/07 01:44:15;;;;;;;29.05;18.13;;;;;;;;;;4995099;28;20018;-76
2022/01/07 01:46:41;;;;;;;28.42;16.45;;;;;;;;;;4993996;28;20022;-77
2022/01/07 01:49:06;;;;;;;25.67;17.50;;;;;;;;;;4993636;28;20471;-76
2022/01/07 01:51:33;;;;;;;21.33;14.48;;;;;;;;;;4994276;28;20037;-76
2022/01/07 01:53:58;;;;;;;25.00;16.80;;;;;;;;;;4995730;28;20029;-75
2022/01/07 01:56:23;;;;;;;29.63;20.35;;;;;;;;;;4995685;28;20037;-76
2022/01/07 01:58:49;;;;;;;26.80;18.38;;;;;;;;;;4995070;28;20453;-76
2022/01/07 02:01:15;;;;;;;26.98;18.65;;;;;;;;;;4995194;28;20076;-76
2022/01/07 02:03:40;;;;;;;22.25;15.95;;;;;;;;;;4993471;28;20021;-76
2022/01/07 02:06:06;;;;;;;29.80;19.42;;;;;;;;;;4993826;28;20048;-76
2022/01/07 02:08:31;;;;;;;23.25;15.55;;;;;;;;;;4995560;28;20454;-76
2022/01/07 02:10:57;;;;;;;24.58;16.92;;;;;;;;;;4995169;28;20026;-76
2022/01/07 02:13:23;;;;;;;27.90;17.42;;;;;;;;;;4996346;28;20021;-76
2022/01/07 02:15:48;;;;;;;33.03;22.50;;;;;;;;;;4997443;28;20026;-76
2022/01/07 02:18:16;;;;;;;29.13;19.77;;;;;;;;;;5000094;28;20029;-76
2022/01/07 02:20:41;;;;;;;29.20;21.85;;;;;;;;;;4998973;28;20117;-76
2022/01/07 02:23:07;;;;;;;27.27;18.83;;;;;;;;;;4997476;28;20117;-75
2022/01/07 02:25:32;;;;;;;27.30;19.52;;;;;;;;;;4999306;28;20029;-76
2022/01/07 02:27:57;;;;;;;24.83;17.17;;;;;;;;;;4998937;28;20030;-77
2022/01/07 02:30:25;;;;;;;28.95;20.23;;;;;;;;;;4999431;28;20045;-76
2022/01/07 02:32:51;;;;;;;28.55;18.55;;;;;;;;;;4999193;28;20101;-75
2022/01/07 02:35:17;;;;;;;27.08;19.40;;;;;;;;;;4997411;28;20165;-76
2022/01/07 02:37:42;;;;;;;30.40;18.20;;;;;;;;;;4999145;28;20025;-76
2022/01/07 02:40:09;;;;;;;34.78;22.38;;;;;;;;;;4998828;28;20030;-76
2022/01/07 02:42:34;;;;;;;32.20;21.15;;;;;;;;;;4999422;28;20096;-76
2022/01/07 02:45:00;;;;;;;27.30;18.60;;;;;;;;;;4997043;28;20787;-75
2022/01/07 02:47:30;;;;;;;31.75;21.17;;;;;;;;;;4999119;28;20084;-76
2022/01/07 02:49:56;;;;;;;24.70;17.60;;;;;;;;;;5000610;28;20168;-76
2022/01/07 02:52:21;;;;;;;28.85;18.92;;;;;;;;;;4999524;28;20150;-75
2022/01/07 02:54:46;;;;;;;25.13;17.95;;;;;;;;;;5001194;28;20468;-76
2022/01/07 02:57:12;;;;;;;27.80;18.75;;;;;;;;;;5000251;28;20018;-76
2022/01/07 02:59:37;;;;;;;26.17;16.98;;;;;;;;;;4998113;28;20146;-76
2022/01/07 03:02:02;;;;;;;29.63;18.65;;;;;;;;;;4997749;28;20021;-75
2022/01/07 03:04:28;;;;;;;23.60;17.25;;;;;;;;;;4997821;28;20022;-75
2022/01/07 03:06:53;;;;;;;26.52;18.80;;;;;;;;;;4999119;28;20028;-76
2022/01/07 03:09:19;;;;;;;27.02;19.15;;;;;;;;;;4997844;28;20033;-75
2022/01/07 03:11:44;;;;;;;28.60;18.33;;;;;;;;;;4998844;28;20116;-76
2022/01/07 03:14:10;;;;;;;25.95;17.98;;;;;;;;;;4998116;28;20030;-76
2022/01/07 03:16:35;;;;;;;29.85;19.60;;;;;;;;;;4998742;28;20029;-76
2022/01/07 03:19:01;;;;;;;27.58;19.75;;;;;;;;;;4996573;28;20029;-76
2022/01/07 03:21:26;;;;;;;25.88;18.80;;;;;;;;;;4996514;28;20022;-75
2022/01/07 03:23:52;;;;;;;27.40;19.30;;;;;;;;;;4997533;28;20057;-76
2022/01/07 03:26:17;;;;;;;27.67;19.42;;;;;;;;;;4997741;28;20021;-76
2022/01/07 03:28:45;;;;;;;31.25;21.67;;;;;;;;;;4996192;28;20120;-76
2022/01/07 03:31:10;;;;;;;25.85;18.58;;;;;;;;;;4996114;28;20469;-76
2022/01/07 03:33:36;;;;;;;25.63;19.08;;;;;;;;;;4996268;28;20032;-76
2022/01/07 03:36:01;;;;;;;30.52;20.00;;;;;;;;;;4998336;28;20057;-76
2022/01/07 03:38:26;;;;;;;29.05;20.75;;;;;;;;;;4996090;28;20034;-76
2022/01/07 03:40:52;;;;;;;26.77;17.83;;;;;;;;;;4998325;28;20029;-75
2022/01/07 03:43:17;;;;;;;30.17;20.70;;;;;;;;;;4997335;28;20153;-76
2022/01/07 03:45:43;;;;;;;29.45;19.27;;;;;;;;;;4997581;28;20022;-76
2022/01/07 03:48:08;;;;;;;43.70;26.02;;;;;;;;;;4997290;28;20025;-77
2022/01/07 03:50:33;;;;;;;54.67;32.25;;;;;;;;;;4995527;28;20029;-76
2022/01/07 03:53:00;;;;;;;33.45;20.90;;;;;;;;;;4997308;28;20036;-77
2022/01/07 03:55:28;;;;;;;56.05;33.00;;;;;;;;;;4995883;28;20022;-75
2022/01/07 03:57:54;;;;;;;43.28;27.70;;;;;;;;;;4997757;28;20025;-76
2022/01/07 04:00:21;;;;;;;39.50;26.88;;;;;;;;;;4997574;28;20537;-76
2022/01/07 04:02:47;;;;;;;44.40;28.33;;;;;;;;;;4995662;28;20022;-77
2022/01/07 04:05:14;;;;;;;37.70;25.70;;;;;;;;;;4996766;28;20503;-76
2022/01/07 04:07:39;;;;;;;37.65;24.85;;;;;;;;;;4996883;28;20045;-76
2022/01/07 04:10:05;;;;;;;31.80;24.38;;;;;;;;;;4997274;28;20476;-76
2022/01/07 04:12:30;;;;;;;29.00;19.83;;;;;;;;;;4995233;28;20067;-75
2022/01/07 04:15:08;;;;;;;28.58;19.65;;;;;;;;;;4998043;28;20018;-76
2022/01/07 04:17:37;;;;;;;29.88;19.83;;;;;;;;;;4996652;28;20088;-77
2022/01/07 04:20:04;;;;;;;33.05;23.20;;;;;;;;;;4997961;28;20125;-76
2022/01/07 04:22:30;;;;;;;33.90;21.23;;;;;;;;;;4997514;28;20037;-76
2022/01/07 04:24:55;;;;;;;30.27;20.50;;;;;;;;;;4995079;28;20121;-76
2022/01/07 04:27:20;;;;;;;28.15;19.50;;;;;;;;;;4995513;28;20080;-76
2022/01/07 04:29:46;;;;;;;28.75;18.70;;;;;;;;;;4994993;28;20029;-76
2022/01/07 04:32:11;;;;;;;32.42;22.15;;;;;;;;;;4994738;28;20038;-76
2022/01/07 04:34:37;;;;;;;29.50;19.77;;;;;;;;;;4997623;28;20370;-76
2022/01/07 04:37:02;;;;;;;28.25;18.35;;;;;;;;;;4996795;28;20063;-76
2022/01/07 04:39:27;;;;;;;26.30;17.73;;;;;;;;;;4994712;28;20025;-76
2022/01/07 04:41:53;;;;;;;28.95;19.17;;;;;;;;;;4996023;28;20049;-76
2022/01/07 04:44:19;;;;;;;24.70;18.33;;;;;;;;;;4996865;28;20022;-76
2022/01/07 04:46:45;;;;;;;29.95;19.25;;;;;;;;;;4996065;28;20057;-77
2022/01/07 04:49:10;;;;;;;31.40;20.58;;;;;;;;;;4996940;28;20146;-76
2022/01/07 04:51:35;;;;;;;34.60;22.77;;;;;;;;;;4997169;28;20036;-76
2022/01/07 04:54:01;;;;;;;29.00;19.70;;;;;;;;;;4994657;28;20026;-76
2022/01/07 04:56:26;;;;;;;31.17;21.70;;;;;;;;;;4996948;28;20026;-76
2022/01/07 04:58:51;;;;;;;29.42;20.88;;;;;;;;;;4996009;28;20169;-77
2022/01/07 05:01:17;;;;;;;33.33;21.13;;;;;;;;;;4996932;28;20029;-76
2022/01/07 05:03:42;;;;;;;30.92;19.55;;;;;;;;;;4996629;28;20050;-76
2022/01/07 05:06:52;;;;;;;29.63;18.77;;;;;;;;;;4995884;28;20021;-76
2022/01/07 05:08:53;;;;;;;27.33;17.85;;;;;;;;;;4984706;28;20064;-76
2022/01/07 05:11:18;;;;;;;26.10;17.40;;;;;;;;;;4994544;28;20026;-76
2022/01/07 05:13:44;;;;;;;37.15;22.80;;;;;;;;;;4994260;28;20045;-76
2022/01/07 05:16:09;;;;;;;28.50;19.42;;;;;;;;;;4995681;28;20032;-76
2022/01/07 05:18:34;;;;;;;32.85;20.95;;;;;;;;;;4994510;28;20049;-76
2022/01/07 05:21:00;;;;;;;28.38;19.80;;;;;;;;;;4995279;28;20385;-76
2022/01/07 05:23:25;;;;;;;37.65;24.50;;;;;;;;;;4995731;28;20125;-76
2022/01/07 05:25:50;;;;;;;36.38;24.45;;;;;;;;;;4994164;28;20114;-76
2022/01/07 05:28:16;;;;;;;29.63;20.17;;;;;;;;;;4995485;28;20453;-75
2022/01/07 05:30:41;;;;;;;35.45;21.92;;;;;;;;;;4996649;28;20108;-76
2022/01/07 05:33:06;;;;;;;26.50;18.23;;;;;;;;;;4994041;28;20023;-75
2022/01/07 05:35:32;;;;;;;34.88;19.75;;;;;;;;;;4996338;28;20101;-76
2022/01/07 05:37:57;;;;;;;33.00;23.20;;;;;;;;;;4995805;28;20030;-76
2022/01/07 05:40:23;;;;;;;31.40;21.60;;;;;;;;;;4995786;28;20026;-77
2022/01/07 05:42:48;;;;;;;28.38;20.38;;;;;;;;;;4993238;28;20054;-76
2022/01/07 05:45:13;;;;;;;31.88;22.85;;;;;;;;;;4995671;28;20667;-76
2022/01/07 05:47:39;;;;;;;39.60;24.65;;;;;;;;;;4995863;28;20410;-75
2022/01/07 05:50:05;;;;;;;29.33;20.98;;;;;;;;;;4996023;28;20038;-78
2022/01/07 05:52:30;;;;;;;25.70;18.20;;;;;;;;;;4993747;28;20034;-76
2022/01/07 05:54:55;;;;;;;29.30;20.00;;;;;;;;;;4995339;28;20061;-75
2022/01/07 05:57:21;;;;;;;28.02;20.58;;;;;;;;;;4993375;28;21048;-75
2022/01/07 05:59:46;;;;;;;27.13;19.83;;;;;;;;;;4994858;28;20045;-76
2022/01/07 06:02:11;;;;;;;29.50;18.98;;;;;;;;;;4995407;28;20479;-76
2022/01/07 06:04:37;;;;;;;37.22;25.13;;;;;;;;;;4995185;28;20029;-76
2022/01/07 06:07:02;;;;;;;27.35;19.25;;;;;;;;;;4995769;28;20022;-75
2022/01/07 06:09:28;;;;;;;31.23;21.35;;;;;;;;;;4994506;28;20030;-75
2022/01/07 06:11:53;;;;;;;28.35;19.35;;;;;;;;;;4995546;28;20045;-75
2022/01/07 06:14:18;;;;;;;31.10;22.15;;;;;;;;;;4995386;28;20022;-76
2022/01/07 06:16:44;;;;;;;31.17;21.58;;;;;;;;;;4994835;28;20034;-75
2022/01/07 06:19:09;;;;;;;27.98;20.75;;;;;;;;;;4994989;28;20026;-76
2022/01/07 06:21:34;;;;;;;30.48;19.70;;;;;;;;;;5009521;28;20032;-76
2022/01/07 06:24:00;;;;;;;28.98;20.65;;;;;;;;;;4995206;28;20026;-75
2022/01/07 06:26:25;;;;;;;31.13;20.83;;;;;;;;;;4995397;28;20716;-76
2022/01/07 06:28:51;;;;;;;34.50;22.98;;;;;;;;;;4994428;28;20033;-76
2022/01/07 06:31:16;;;;;;;30.30;21.58;;;;;;;;;;4992927;28;20033;-75
2022/01/07 06:33:42;;;;;;;40.70;28.10;;;;;;;;;;4994653;28;20473;-76
2022/01/07 06:36:08;;;;;;;58.70;32.90;;;;;;;;;;4992945;28;20076;-76
2022/01/07 06:38:33;;;;;;;38.53;24.75;;;;;;;;;;4994822;28;20053;-75
2022/01/07 06:40:59;;;;;;;35.08;24.52;;;;;;;;;;4994984;28;20076;-76
2022/01/07 06:43:24;;;;;;;34.15;24.00;;;;;;;;;;4995222;28;20062;-76
2022/01/07 06:45:49;;;;;;;31.85;23.05;;;;;;;;;;5009588;28;20050;-76
2022/01/07 06:48:15;;;;;;;35.80;24.02;;;;;;;;;;4994888;28;20022;-75
2022/01/07 06:50:41;;;;;;;40.53;27.98;;;;;;;;;;4995973;28;20076;-76
2022/01/07 06:53:07;;;;;;;44.53;32.38;;;;;;;;;;4995081;28;20072;-76
2022/01/07 06:55:32;;;;;;;41.38;27.58;;;;;;;;;;5010597;28;20026;-77
2022/01/07 06:57:57;;;;;;;45.47;29.13;;;;;;;;;;4994224;28;20018;-76
2022/01/07 07:00:24;;;;;;;59.33;36.28;;;;;;;;;;5010496;28;20117;-76
2022/01/07 07:02:49;;;;;;;82.22;51.30;;;;;;;;;;4998596;28;20026;-74
2022/01/07 07:05:15;;;;;;;41.28;26.70;;;;;;;;;;4998188;28;20587;-77
2022/01/07 07:07:53;;;;;;;39.85;27.42;;;;;;;;;;4998326;28;20125;-76
2022/01/07 07:10:19;;;;;;;74.68;53.60;;;;;;;;;;4995136;28;20048;-76
2022/01/07 07:12:45;;;;;;;88.65;57.13;;;;;;;;;;4998684;28;20038;-77
2022/01/07 07:15:10;;;;;;;109.93;67.03;;;;;;;;;;4997882;28;20369;-76
2022/01/07 07:17:36;;;;;;;95.32;59.70;;;;;;;;;;4998264;28;20080;-75
2022/01/07 07:20:03;;;;;;;57.05;34.22;;;;;;;;;;4996476;28;20030;-77
2022/01/07 07:22:28;;;;;;;60.78;38.00;;;;;;;;;;4997716;28;20122;-77
2022/01/07 07:24:53;;;;;;;160.50;98.88;;;;;;;;;;4999040;28;20849;-76
2022/01/07 07:27:19;;;;;;;105.60;58.90;;;;;;;;;;4995454;28;20041;-77
2022/01/07 07:29:44;;;;;;;83.03;54.47;;;;;;;;;;4997917;28;20589;-78
2022/01/07 07:32:11;;;;;;;51.30;32.72;;;;;;;;;;4996866;28;20084;-76
2022/01/07 07:37:05;;;;;;;85.50;55.72;;;;;;;;;;4997620;28;20525;-78
2022/01/07 07:39:32;;;;;;;61.38;38.42;;;;;;;;;;4996113;28;20116;-77
2022/01/07 07:41:57;;;;;;;66.03;36.58;;;;;;;;;;4994640;28;20693;-76
2022/01/07 07:44:22;;;;;;;54.45;35.42;;;;;;;;;;4995868;28;20022;-77
2022/01/07 07:46:48;;;;;;;55.63;39.42;;;;;;;;;;4996306;28;20056;-77
2022/01/07 07:49:14;;;;;;;66.25;46.47;;;;;;;;;;4996013;28;20445;-78
2022/01/07 07:51:40;;;;;;;81.45;53.53;;;;;;;;;;4997374;28;20030;-78
2022/01/07 07:54:06;;;;;;;65.82;37.72;;;;;;;;;;4996680;28;20049;-77
2022/01/07 07:56:31;;;;;;;51.75;33.95;;;;;;;;;;4997211;28;20358;-76
2022/01/07 07:58:59;;;;;;;59.22;39.90;;;;;;;;;;5012949;28;20748;-77
2022/01/07 08:01:25;;;;;;;72.25;47.20;;;;;;;;;;4996850;28;20022;-78
2022/01/07 08:03:50;;;;;;;103.00;65.38;;;;;;;;;;4997490;28;20083;-77
2022/01/07 08:06:16;;;;;;;64.50;48.63;;;;;;;;;;4997054;28;20530;-77
2022/01/07 08:08:42;;;;;;;81.75;56.00;;;;;;;;;;4997234;28;20402;-76
2022/01/07 08:11:10;;;;;;;86.00;58.15;;;;;;;;;;4995683;28;20073;-77
2022/01/07 08:16:27;;;;;;;103.78;57.92;;;;;;;;;;4976607;28;20069;-76
2022/01/07 08:18:53;;;;;;;82.32;46.65;;;;;;;;;;4994983;28;20073;-77
2022/01/07 08:21:20;;;;;;;65.35;38.38;;;;;;;;;;4997807;28;20028;-77
2022/01/07 08:23:46;;;;;;;54.22;30.55;;;;;;;;;;4994554;28;20064;-77
2022/01/07 08:26:12;;;;;;;81.55;50.72;;;;;;;;;;4997015;28;20021;-77
2022/01/07 08:28:51;;;;;;;76.93;47.28;;;;;;;;;;4996865;28;20025;-77
2022/01/07 08:31:27;;;;;;;54.80;37.28;;;;;;;;;;4994585;28;20469;-77
2022/01/07 08:36:36;;;;;;;34.70;22.55;;;;;;;;;;4996142;28;20433;-76
2022/01/07 08:39:04;;;;;;;49.70;33.88;;;;;;;;;;4996114;28;20037;-76
2022/01/07 08:41:30;;;;;;;40.70;28.23;;;;;;;;;;4996180;28;20034;-78
2022/01/07 08:43:55;;;;;;;45.72;32.80;;;;;;;;;;4994816;28;20439;-77
2022/01/07 08:46:21;;;;;;;33.63;23.65;;;;;;;;;;4995346;28;20025;-77
2022/01/07 08:48:46;;;;;;;30.83;20.95;;;;;;;;;;4994082;28;20469;-77
2022/01/07 08:51:11;;;;;;;26.75;19.20;;;;;;;;;;4994183;28;20022;-77
2022/01/07 08:53:37;;;;;;;51.10;34.42;;;;;;;;;;4994939;28;20807;-78
2022/01/07 08:56:03;;;;;;;34.35;22.45;;;;;;;;;;4995185;28;20022;-77
2022/01/07 08:58:29;;;;;;;72.65;51.50;;;;;;;;;;4994582;28;20037;-77
2022/01/07 09:00:55;;;;;;;42.65;28.75;;;;;;;;;;4995322;28;20163;-77
2022/01/07 09:03:21;;;;;;;78.60;52.25;;;;;;;;;;4993939;28;20026;-77
2022/01/07 09:05:46;;;;;;;95.57;68.93;;;;;;;;;;4996590;28;20028;-75
2022/01/07 09:08:12;;;;;;;37.63;26.65;;;;;;;;;;4995811;28;20530;-77
2022/01/07 09:10:38;;;;;;;48.53;35.53;;;;;;;;;;4995289;28;20464;-77
2022/01/07 09:13:03;;;;;;;51.05;33.70;;;;;;;;;;4991839;28;20056;-77
2022/01/07 09:15:29;;;;;;;37.85;24.70;;;;;;;;;;4991104;28;20453;-77
2022/01/07 09:17:54;;;;;;;43.55;31.77;;;;;;;;;;4993994;28;20101;-77
2022/01/07 09:20:23;;;;;;;33.60;24.45;;;;;;;;;;4993695;28;20065;-77
2022/01/07 09:22:49;;;;;;;35.58;25.23;;;;;;;;;;4995810;28;20408;-77
2022/01/07 09:25:14;;;;;;;32.47;23.30;;;;;;;;;;4992308;28;20412;-77
2022/01/07 09:27:41;;;;;;;31.38;20.92;;;;;;;;;;4992403;28;20065;-77
2022/01/07 09:30:07;;;;;;;28.58;20.38;;;;;;;;;;5009802;28;20033;-77
2022/01/07 09:32:33;;;;;;;45.65;26.42;;;;;;;;;;4991949;28;20029;-76
2022/01/07 09:34:58;;;;;;;42.45;24.15;;;;;;;;;;4996575;28;20449;-78
2022/01/07 09:37:23;;;;;;;46.28;28.10;;;;;;;;;;4993786;28;20114;-77
2022/01/07 09:39:49;;;;;;;46.75;26.00;;;;;;;;;;4993102;28;20037;-78
2022/01/07 09:42:14;;;;;;;52.15;30.92;;;;;;;;;;4996371;28;20050;-77
2022/01/07 09:44:40;;;;;;;34.17;19.95;;;;;;;;;;4996575;28;20026;-77
2022/01/07 09:47:06;;;;;;;36.38;23.73;;;;;;;;;;4993296;28;20366;-77
2022/01/07 09:49:34;;;;;;;30.45;18.80;;;;;;;;;;4993685;28;20030;-77
2022/01/07 09:52:00;;;;;;;53.72;33.38;;;;;;;;;;4996405;28;20033;-78
2022/01/07 09:54:25;;;;;;;44.67;29.52;;;;;;;;;;4995316;28;20036;-77
2022/01/07 09:56:51;;;;;;;43.25;26.75;;;;;;;;;;4993641;28;20021;-77
2022/01/07 09:59:17;;;;;;;27.88;18.42;;;;;;;;;;4993546;28;20052;-77
2022/01/07 10:01:58;;;;;;;40.50;28.25;;;;;;;;;;4995416;28;20030;-77
2022/01/07 10:04:24;;;;;;;66.03;43.92;;;;;;;;;;4995812;28;20133;-77
2022/01/07 10:07:07;;;;;;;34.95;24.85;;;;;;;;;;4995784;28;20454;-77
2022/01/07 10:09:33;;;;;;;34.47;26.05;;;;;;;;;;4995872;28;20079;-77
2022/01/07 10:12:02;;;;;;;25.83;20.17;;;;;;;;;;4993718;28;20748;-78
2022/01/07 10:14:30;;;;;;;35.47;25.27;;;;;;;;;;4994719;28;20528;-77
2022/01/07 10:16:57;;;;;;;21.40;14.68;;;;;;;;;;4993821;28;20559;-76
2022/01/07 10:19:35;;;;;;;32.38;22.50;;;;;;;;;;4993447;28;20030;-77
2022/01/07 10:22:05;;;;;;;25.73;19.10;;;;;;;;;;4993394;28;20026;-77
2022/01/07 10:24:30;;;;;;;21.95;16.20;;;;;;;;;;4995643;28;20026;-79
2022/01/07 10:27:11;;;;;;;18.27;12.88;;;;;;;;;;4995114;28;20072;-77
2022/01/07 10:29:38;;;;;;;22.88;18.23;;;;;;;;;;4993089;28;20073;-78
2022/01/07 10:32:23;;;;;;;24.95;20.83;;;;;;;;;;4993511;28;20117;-77
2022/01/07 10:35:07;;;;;;;26.48;17.90;;;;;;;;;;4995952;28;20037;-77
2022/01/07 10:37:44;;;;;;;23.08;14.40;;;;;;;;;;4997021;28;20113;-77
2022/01/07 10:40:27;;;;;;;22.27;15.95;;;;;;;;;;4999046;28;20461;-78
2022/01/07 10:43:13;;;;;;;27.25;18.52;;;;;;;;;;4996426;28;20046;-78
2022/01/07 10:45:40;;;;;;;27.42;19.30;;;;;;;;;;4991162;28;20044;-78
2022/01/07 10:48:08;;;;;;;45.40;31.75;;;;;;;;;;4997070;28;20072;-77
2022/01/07 10:50:38;;;;;;;22.63;15.52;;;;;;;;;;4998205;28;20120;-78
2022/01/07 10:53:17;;;;;;;22.63;15.73;;;;;;;;;;4997111;28;20036;-77
2022/01/07 10:55:58;;;;;;;22.63;15.15;;;;;;;;;;4996767;28;20040;-78
2022/01/07 10:58:23;;;;;;;25.42;18.38;;;;;;;;;;4996660;28;20457;-77
2022/01/07 11:00:48;;;;;;;29.15;20.02;;;;;;;;;;4998607;28;20064;-77
2022/01/07 11:03:14;;;;;;;50.13;29.60;;;;;;;;;;4996868;28;20057;-78
2022/01/07 11:05:40;;;;;;;21.75;14.38;;;;;;;;;;4998421;28;20473;-78
2022/01/07 11:08:05;;;;;;;21.02;16.42;;;;;;;;;;4996912;28;20065;-77
2022/01/07 11:10:31;;;;;;;32.38;21.50;;;;;;;;;;4996228;28;20057;-78
2022/01/07 11:12:57;;;;;;;46.80;28.50;;;;;;;;;;4997972;28;20040;-78
2022/01/07 11:15:22;;;;;;;22.55;14.73;;;;;;;;;;4996699;28;20033;-78
2022/01/07 11:17:48;;;;;;;20.30;14.48;;;;;;;;;;4997804;28;20794;-77
2022/01/07 11:20:16;;;;;;;23.90;17.75;;;;;;;;;;4999063;28;20378;-78
2022/01/07 11:22:46;;;;;;;18.08;13.32;;;;;;;;;;4995757;28;20017;-79
2022/01/07 11:25:13;;;;;;;26.10;20.00;;;;;;;;;;4994415;28;20026;-77
2022/01/07 11:27:49;;;;;;;34.42;23.05;;;;;;;;;;4998357;28;20022;-78
2022/01/07 11:30:15;;;;;;;26.63;18.30;;;;;;;;;;4993405;28;20029;-78
2022/01/07 11:32:42;;;;;;;46.47;31.10;;;;;;;;;;4996487;28;20022;-78
2022/01/07 11:35:16;;;;;;;56.05;38.95;;;;;;;;;;5017017;28;20696;-78
2022/01/07 11:37:42;;;;;;;29.00;21.40;;;;;;;;;;5018560;28;20108;-77
2022/01/07 11:40:08;;;;;;;38.60;25.60;;;;;;;;;;5017289;28;20087;-78
2022/01/07 11:42:40;;;;;;;38.00;26.30;;;;;;;;;;5015278;28;20308;-77
2022/01/07 11:45:32;;;;;;;65.65;43.05;;;;;;;;;;5017020;28;20774;-77
2022/01/07 11:48:09;;;;;;;49.72;32.70;;;;;;;;;;5015116;28;20473;-77
2022/01/07 11:50:54;;;;;;;46.28;32.45;;;;;;;;;;5015949;28;20068;-76
2022/01/07 11:53:19;;;;;;;44.65;27.42;;;;;;;;;;5007331;28;20400;-78
2022/01/07 11:55:44;;;;;;;54.88;33.92;;;;;;;;;;4997203;28;20030;-79
2022/01/07 11:58:11;;;;;;;22.10;16.15;;;;;;;;;;4995585;28;20030;-78
2022/01/07 12:00:59;;;;;;;31.88;23.35;;;;;;;;;;4997595;28;20108;-77
2022/01/07 12:03:36;;;;;;;28.52;19.60;;;;;;;;;;4998144;28;20040;-78
2022/01/07 12:06:20;;;;;;;24.90;16.52;;;;;;;;;;4995912;28;20030;-78
2022/01/07 12:09:05;;;;;;;21.73;13.52;;;;;;;;;;4995416;28;20037;-78
2022/01/07 12:11:31;;;;;;;49.30;25.83;;;;;;;;;;4996773;28;20465;-78
2022/01/07 12:13:57;;;;;;;53.45;30.63;;;;;;;;;;4996816;28;20053;-78
2022/01/07 12:16:23;;;;;;;42.88;26.17;;;;;;;;;;4999277;28;20030;-78
2022/01/07 12:18:49;;;;;;;21.33;14.50;;;;;;;;;;4997797;28;20063;-78
2022/01/07 12:21:19;;;;;;;49.35;30.95;;;;;;;;;;4998072;28;20434;-78
2022/01/07 12:23:45;;;;;;;41.83;25.25;;;;;;;;;;4995594;28;20044;-77
2022/01/07 12:26:10;;;;;;;118.70;68.50;;;;;;;;;;4995221;28;20025;-77
2022/01/07 12:28:41;;;;;;;114.60;64.80;;;;;;;;;;4998313;28;20351;-77
2022/01/07 12:31:50;;;;;;;86.43;56.65;;;;;;;;;;5000810;28;20064;-77
2022/01/07 12:34:27;;;;;;;34.97;23.65;;;;;;;;;;4999468;28;20060;-77
2022/01/07 12:36:56;;;;;;;47.45;30.08;;;;;;;;;;4992770;28;20022;-77
2022/01/07 12:39:26;;;;;;;29.13;20.13;;;;;;;;;;4991593;28;20033;-77
2022/01/07 12:41:55;;;;;;;42.75;23.58;;;;;;;;;;4993051;28;20042;-77
2022/01/07 12:44:20;;;;;;;42.85;28.55;;;;;;;;;;4994446;28;20088;-77
2022/01/07 12:47:04;;;;;;;18.77;13.73;;;;;;;;;;4995121;28;20026;-79
2022/01/07 12:49:33;;;;;;;29.70;20.67;;;;;;;;;;4995880;28;20080;-78
2022/01/07 12:52:03;;;;;;;21.20;17.25;;;;;;;;;;4994808;28;20067;-78
2022/01/07 12:54:28;;;;;;;19.20;13.82;;;;;;;;;;4995934;28;20057;-77
2022/01/07 12:56:54;;;;;;;45.40;23.38;;;;;;;;;;4996208;28;20052;-77
2022/01/07 12:59:20;;;;;;;26.27;14.63;;;;;;;;;;4994470;28;20160;-77
2022/01/07 13:01:47;;;;;;;20.80;15.25;;;;;;;;;;4995866;28;20026;-78
2022/01/07 13:04:17;;;;;;;21.67;15.38;;;;;;;;;;4994987;28;20573;-77
2022/01/07 13:06:47;;;;;;;55.75;35.67;;;;;;;;;;4997079;28;20760;-78
2022/01/07 13:09:18;;;;;;;30.48;18.90;;;;;;;;;;4995731;28;20520;-77
2022/01/07 13:11:47;;;;;;;24.42;17.30;;;;;;;;;;4996008;28;20052;-77
2022/01/07 13:14:13;;;;;;;21.55;15.90;;;;;;;;;;4994769;28;20021;-77
2022/01/07 13:16:39;;;;;;;30.52;19.85;;;;;;;;;;4996496;28;20032;-78
2022/01/07 13:19:05;;;;;;;36.22;23.48;;;;;;;;;;4994958;28;20117;-78
2022/01/07 13:21:31;;;;;;;57.28;38.15;;;;;;;;;;4994500;28;20026;-78
2022/01/07 13:23:58;;;;;;;36.72;24.45;;;;;;;;;;4995684;28;20061;-76
2022/01/07 13:26:24;;;;;;;42.88;28.20;;;;;;;;;;4995703;28;20022;-76
2022/01/07 13:28:50;;;;;;;45.60;30.85;;;;;;;;;;4996671;28;20044;-77
2022/01/07 13:31:20;;;;;;;31.33;20.33;;;;;;;;;;4995756;28;20485;-78
2022/01/07 13:33:45;;;;;;;28.80;17.67;;;;;;;;;;4994238;28;20396;-78
2022/01/07 13:36:12;;;;;;;60.85;43.78;;;;;;;;;;4994286;28;20117;-77
2022/01/07 13:38:38;;;;;;;48.03;33.15;;;;;;;;;;4995084;28;20581;-76
2022/01/07 13:41:08;;;;;;;41.80;27.67;;;;;;;;;;4994373;28;20025;-76
2022/01/07 13:43:34;;;;;;;27.73;18.75;;;;;;;;;;4996226;28;20054;-77
2022/01/07 13:46:19;;;;;;;22.70;16.65;;;;;;;;;;4995004;28;20026;-76
2022/01/07 13:48:55;;;;;;;40.72;24.83;;;;;;;;;;4995652;28;20018;-75
2022/01/07 13:51:22;;;;;;;28.90;18.25;;;;;;;;;;4996345;28;20025;-77
2022/01/07 13:54:06;;;;;;;30.83;17.65;;;;;;;;;;4993929;28;20465;-78
2022/01/07 13:56:32;;;;;;;35.90;23.70;;;;;;;;;;4995207;28;20026;-77
2022/01/07 13:59:01;;;;;;;32.78;22.17;;;;;;;;;;4995774;28;20384;-75
2022/01/07 14:01:26;;;;;;;31.35;21.48;;;;;;;;;;4996213;28;20138;-77
2022/01/07 14:03:52;;;;;;;27.25;18.80;;;;;;;;;;4993465;28;20426;-77
2022/01/07 14:06:19;;;;;;;28.02;22.17;;;;;;;;;;4995451;28;20022;-77
2022/01/07 14:08:45;;;;;;;21.52;16.77;;;;;;;;;;4994207;28;20381;-76
2022/01/07 14:11:11;;;;;;;13.57;10.77;;;;;;;;;;4997761;28;20026;-76
2022/01/07 14:13:36;;;;;;;49.72;26.85;;;;;;;;;;5000007;28;20029;-76
2022/01/07 14:16:02;;;;;;;174.90;78.85;;;;;;;;;;4997996;28;20033;-76
2022/01/07 14:18:29;;;;;;;65.68;29.13;;;;;;;;;;4997562;28;20040;-77
2022/01/07 14:20:56;;;;;;;37.22;17.50;;;;;;;;;;4997798;28;20125;-77
2022/01/07 14:23:23;;;;;;;69.10;39.03;;;;;;;;;;4998974;28;20021;-77
2022/01/07 14:25:49;;;;;;;28.95;16.05;;;;;;;;;;4999707;28;20033;-77